createdAt,value
2018-09-04T00:00:09.711Z,43.90
2018-09-04T00:02:37.956Z,44.80
2018-09-04T00:05:06.206Z,42.40
2018-09-04T00:07:34.457Z,51.07
2018-09-04T00:10:02.815Z,45.30
2018-09-04T00:12:30.982Z,40.67
2018-09-04T00:14:59.274Z,45.43
2018-09-04T00:17:27.511Z,45.30
2018-09-04T00:19:55.787Z,48.40
2018-09-04T00:22:24.013Z,40.40
2018-09-04T00:24:53.180Z,41.77
2018-09-04T00:27:21.673Z,38.07
2018-09-04T00:29:49.896Z,47.55
2018-09-04T00:32:22.165Z,42.75
2018-09-04T00:34:50.351Z,44.38
2018-09-04T00:37:18.798Z,49.90
2018-09-04T00:39:47.319Z,49.47
2018-09-04T00:42:15.479Z,41.87
2018-09-04T00:44:44.141Z,40.87
2018-09-04T00:47:12.336Z,43.20
2018-09-04T00:49:40.621Z,39.95
2018-09-04T00:52:08.855Z,40.80
2018-09-04T00:54:37.104Z,37.10
2018-09-04T00:57:05.319Z,45.30
2018-09-04T00:59:33.708Z,38.20
2018-09-04T01:02:05.357Z,36.53
2018-09-04T01:04:33.653Z,40.52
2018-09-04T01:07:01.860Z,42.93
2018-09-04T01:09:30.307Z,41.37
2018-09-04T01:11:58.513Z,42.17
2018-09-04T01:14:26.732Z,38.63
2018-09-04T01:16:54.958Z,44.03
2018-09-04T01:19:23.137Z,41.63
2018-09-04T01:21:51.355Z,39.47
2018-09-04T01:24:19.583Z,43.30
2018-09-04T01:26:48.075Z,42.80
2018-09-04T01:29:17.214Z,44.57
2018-09-04T01:31:45.413Z,45.17
2018-09-04T01:34:13.588Z,44.77
2018-09-04T01:36:42.405Z,44.10
2018-09-04T01:39:10.610Z,47.48
2018-09-04T01:41:38.810Z,45.83
2018-09-04T01:44:07.015Z,42.00
2018-09-04T01:46:35.273Z,45.37
2018-09-04T01:49:07.933Z,47.00
2018-09-04T01:51:36.127Z,40.90
2018-09-04T01:54:04.334Z,40.93
2018-09-04T01:56:32.578Z,43.57
2018-09-04T01:59:00.782Z,44.53
2018-09-04T02:01:28.977Z,41.10
2018-09-04T02:03:57.162Z,39.93
2018-09-04T02:06:25.404Z,44.87
2018-09-04T02:08:53.596Z,39.83
2018-09-04T02:11:21.820Z,41.97
2018-09-04T02:13:50.048Z,42.10
2018-09-04T02:16:18.250Z,40.63
2018-09-04T02:18:46.500Z,39.53
2018-09-04T02:21:14.757Z,45.27
2018-09-04T02:23:42.978Z,37.40
2018-09-04T02:26:11.210Z,39.40
2018-09-04T02:28:39.607Z,42.73
2018-09-04T02:31:07.804Z,46.65
2018-09-04T02:33:39.083Z,41.23
2018-09-04T02:36:07.285Z,38.88
2018-09-04T02:38:37.144Z,39.44
2018-09-04T02:41:06.065Z,42.85
2018-09-04T02:43:34.268Z,42.55
2018-09-04T02:46:02.460Z,46.30
2018-09-04T02:48:30.655Z,39.15
2018-09-04T02:51:06.545Z,37.93
2018-09-04T02:53:34.763Z,39.03
2018-09-04T02:56:02.976Z,41.90
2018-09-04T02:58:31.633Z,43.68
2018-09-04T03:00:59.983Z,37.17
2018-09-04T03:03:28.174Z,43.77
2018-09-04T03:05:56.403Z,38.87
2018-09-04T03:08:24.656Z,40.63
2018-09-04T03:10:52.879Z,44.47
2018-09-04T03:13:21.161Z,43.87
2018-09-04T03:15:49.331Z,48.50
2018-09-04T03:18:17.654Z,50.23
2018-09-04T03:20:49.743Z,42.70
2018-09-04T03:23:18.034Z,43.15
2018-09-04T03:25:46.372Z,44.97
2018-09-04T03:28:14.627Z,49.80
2018-09-04T03:30:42.832Z,56.27
2018-09-04T03:33:11.106Z,59.83
2018-09-04T03:35:39.335Z,47.23
2018-09-04T03:38:07.550Z,47.27
2018-09-04T03:40:35.857Z,48.60
2018-09-04T03:43:04.079Z,52.20
2018-09-04T03:45:32.339Z,53.10
2018-09-04T03:48:00.640Z,49.87
2018-09-04T03:50:28.864Z,51.20
2018-09-04T03:52:57.080Z,60.10
2018-09-04T03:55:25.644Z,54.10
2018-09-04T03:57:53.904Z,62.90
2018-09-04T04:00:22.199Z,63.10
2018-09-04T04:02:50.467Z,65.72
2018-09-04T04:05:19.489Z,60.08
2018-09-04T04:07:47.749Z,58.65
2018-09-04T04:10:15.994Z,70.90
2018-09-04T04:12:45.138Z,56.77
2018-09-04T04:15:13.875Z,70.50
2018-09-04T04:17:42.127Z,74.75
2018-09-04T04:20:13.372Z,65.40
2018-09-04T04:22:41.623Z,70.97
2018-09-04T04:25:10.873Z,63.43
2018-09-04T04:27:39.956Z,57.95
2018-09-04T04:30:08.199Z,68.12
2018-09-04T04:32:36.418Z,64.05
2018-09-04T04:35:05.153Z,64.63
2018-09-04T04:37:33.435Z,56.20
2018-09-04T04:40:01.763Z,65.65
2018-09-04T04:42:29.934Z,63.27
2018-09-04T04:44:58.216Z,59.65
2018-09-04T04:47:31.819Z,64.63
2018-09-04T04:50:00.037Z,60.97
2018-09-04T04:52:28.257Z,65.60
2018-09-04T04:54:56.511Z,55.85
2018-09-04T04:57:24.871Z,57.50
2018-09-04T04:59:53.322Z,56.77
2018-09-04T05:02:21.816Z,48.23
2018-09-04T05:04:50.028Z,63.90
2018-09-04T05:07:18.348Z,43.93
2018-09-04T05:09:46.580Z,56.90
2018-09-04T05:12:15.419Z,55.70
2018-09-04T05:14:44.338Z,65.35
2018-09-04T05:17:13.406Z,61.17
2018-09-04T05:19:41.685Z,65.33
2018-09-04T05:22:09.908Z,60.23
2018-09-04T05:24:40.079Z,57.53
2018-09-04T05:27:10.316Z,63.13
2018-09-04T05:29:39.168Z,63.53
2018-09-04T05:32:13.000Z,68.37
2018-09-04T05:34:41.252Z,65.95
2018-09-04T05:37:09.472Z,63.57
2018-09-04T05:39:37.882Z,68.23
2018-09-04T05:42:11.483Z,58.15
2018-09-04T05:44:39.774Z,56.60
2018-09-04T05:47:08.055Z,55.87
2018-09-04T05:49:36.286Z,54.90
2018-09-04T05:52:04.769Z,64.27
2018-09-04T05:54:33.962Z,57.20
2018-09-04T05:57:02.193Z,72.17
2018-09-04T05:59:30.636Z,75.45
2018-09-04T06:01:58.884Z,61.55
2018-09-04T06:04:27.756Z,60.75
2018-09-04T06:07:07.474Z,66.83
2018-09-04T06:09:35.677Z,62.83
2018-09-04T06:12:06.948Z,58.67
2018-09-04T06:14:35.247Z,63.92
2018-09-04T06:17:03.556Z,54.27
2018-09-04T06:19:33.204Z,66.53
2018-09-04T06:22:01.484Z,54.10
2018-09-04T06:24:29.769Z,61.60
2018-09-04T06:26:58.008Z,64.03
2018-09-04T06:29:26.274Z,66.90
2018-09-04T06:31:54.466Z,70.13
2018-09-04T06:34:22.720Z,55.47
2018-09-04T06:36:51.015Z,62.00
2018-09-04T06:39:22.909Z,51.97
2018-09-04T06:41:51.151Z,61.30
2018-09-04T06:44:19.977Z,78.37
2018-09-04T06:46:48.302Z,65.97
2018-09-04T06:49:18.666Z,67.07
2018-09-04T06:51:47.863Z,68.87
2018-09-04T06:54:23.260Z,74.87
2018-09-04T06:56:51.524Z,73.73
2018-09-04T06:59:19.822Z,69.43
2018-09-04T07:01:48.762Z,78.35
2018-09-04T07:04:17.319Z,70.73
2018-09-04T07:06:45.960Z,62.40
2018-09-04T07:09:18.133Z,76.28
2018-09-04T07:11:46.347Z,78.50
2018-09-04T07:14:16.215Z,71.15
2018-09-04T07:16:44.435Z,71.00
2018-09-04T07:19:16.965Z,75.10
2018-09-04T07:21:45.186Z,79.85
2018-09-04T07:24:14.075Z,70.77
2018-09-04T07:26:42.280Z,71.10
2018-09-04T07:29:13.674Z,73.40
2018-09-04T07:31:42.316Z,69.10
2018-09-04T07:34:10.564Z,70.13
2018-09-04T07:36:38.792Z,61.73
2018-09-04T07:39:12.477Z,66.72
2018-09-04T07:41:41.767Z,72.10
2018-09-04T07:44:10.479Z,66.97
2018-09-04T07:46:38.710Z,64.70
2018-09-04T07:49:07.160Z,72.63
2018-09-04T07:51:35.406Z,66.23
2018-09-04T07:54:04.372Z,67.03
2018-09-04T07:56:32.605Z,68.07
2018-09-04T07:59:00.825Z,69.93
2018-09-04T08:01:30.000Z,64.85
2018-09-04T08:03:58.433Z,71.15
2018-09-04T08:06:26.704Z,62.57
2018-09-04T08:08:58.868Z,69.10
2018-09-04T08:11:30.322Z,60.97
2018-09-04T08:13:59.078Z,50.50
2018-09-04T08:16:27.521Z,61.65
2018-09-04T08:18:55.924Z,60.83
2018-09-04T08:21:24.221Z,53.30
2018-09-04T08:23:52.589Z,62.67
2018-09-04T08:26:20.804Z,54.30
2018-09-04T08:28:49.031Z,56.00
2018-09-04T08:31:18.244Z,50.53
2018-09-04T08:33:46.801Z,57.80
2018-09-04T08:36:15.219Z,53.28
2018-09-04T08:38:50.320Z,55.63
2018-09-04T08:41:18.987Z,52.17
2018-09-04T08:43:47.503Z,45.33
2018-09-04T08:46:16.386Z,55.55
2018-09-04T08:48:44.578Z,54.90
2018-09-04T08:51:12.779Z,54.50
2018-09-04T08:53:42.078Z,59.33
2018-09-04T08:56:18.033Z,59.25
2018-09-04T08:58:47.394Z,58.57
2018-09-04T09:01:15.897Z,63.90
2018-09-04T09:03:44.125Z,56.43
2018-09-04T09:06:12.350Z,55.60
2018-09-04T09:08:40.517Z,57.70
2018-09-04T09:11:08.691Z,55.30
2018-09-04T09:13:36.932Z,56.37
2018-09-04T09:16:05.550Z,57.47
2018-09-04T09:18:33.713Z,63.90
2018-09-04T09:21:01.917Z,55.23
2018-09-04T09:23:30.098Z,57.80
2018-09-04T09:26:05.116Z,56.20
2018-09-04T09:28:34.112Z,60.60
2018-09-04T09:31:03.284Z,57.93
2018-09-04T09:33:32.391Z,57.90
2018-09-04T09:36:01.987Z,57.50
2018-09-04T09:38:31.105Z,62.63
2018-09-04T09:41:03.170Z,61.75
2018-09-04T09:43:31.367Z,54.73
2018-09-04T09:46:00.488Z,52.07
2018-09-04T09:48:35.106Z,49.27
2018-09-04T09:51:03.906Z,51.68
2018-09-04T09:53:32.334Z,53.67
2018-09-04T09:56:13.019Z,57.40
2018-09-04T09:58:41.952Z,54.50
2018-09-04T10:01:16.230Z,54.45
2018-09-04T10:03:52.113Z,54.00
2018-09-04T10:06:22.058Z,50.63
2018-09-04T10:08:50.259Z,58.33
2018-09-04T10:11:22.136Z,49.60
2018-09-04T10:13:50.478Z,48.60
2018-09-04T10:16:19.561Z,47.60
2018-09-04T10:18:48.781Z,57.90
2018-09-04T10:21:17.605Z,58.63
2018-09-04T10:23:45.729Z,52.17
2018-09-04T10:26:19.296Z,59.13
2018-09-04T10:28:47.464Z,54.33
2018-09-04T10:31:15.651Z,56.13
2018-09-04T10:36:42.704Z,56.63
2018-09-04T10:39:16.689Z,60.00
2018-09-04T10:41:47.789Z,62.05
2018-09-04T10:44:16.045Z,59.30
2018-09-04T10:46:46.588Z,55.10
2018-09-04T10:49:15.708Z,56.20
2018-09-04T10:51:44.196Z,53.60
2018-09-04T10:54:13.391Z,50.20
2018-09-04T10:56:50.394Z,58.38
2018-09-04T10:59:18.628Z,52.10
2018-09-04T11:01:47.417Z,51.30
2018-09-04T11:04:15.668Z,55.00
2018-09-04T11:06:44.165Z,56.63
2018-09-04T11:09:12.410Z,53.90
2018-09-04T11:11:42.484Z,58.90
2018-09-04T11:14:11.283Z,56.58
2018-09-04T11:16:41.481Z,52.00
2018-09-04T11:19:09.705Z,52.77
2018-09-04T11:21:38.594Z,58.47
2018-09-04T11:24:07.179Z,49.55
2018-09-04T11:26:35.775Z,56.50
2018-09-04T11:29:09.583Z,48.53
2018-09-04T11:31:37.809Z,50.73
2018-09-04T11:34:06.005Z,49.33
2018-09-04T11:36:34.291Z,55.20
2018-09-04T11:39:02.431Z,50.80
2018-09-04T11:41:31.528Z,46.80
2018-09-04T11:43:59.767Z,60.87
2018-09-04T11:46:27.967Z,53.80
2018-09-04T11:48:56.255Z,52.48
2018-09-04T11:51:24.465Z,49.13
2018-09-04T11:53:52.713Z,48.67
2018-09-04T11:56:21.891Z,49.80
2018-09-04T11:58:53.601Z,49.93
2018-09-04T12:01:24.969Z,54.70
2018-09-04T12:03:53.234Z,54.63
2018-09-04T12:06:21.447Z,48.60
2018-09-04T12:08:49.647Z,46.87
2018-09-04T12:11:17.827Z,54.03
2018-09-04T12:13:51.434Z,48.80
2018-09-04T12:16:19.584Z,54.60
2018-09-04T12:18:48.536Z,46.10
2018-09-04T12:21:17.421Z,59.70
2018-09-04T12:23:45.531Z,48.87
2018-09-04T12:26:14.631Z,50.37
2018-09-04T12:28:43.307Z,43.48
2018-09-04T12:31:12.807Z,56.02
2018-09-04T12:33:41.369Z,51.43
2018-09-04T12:36:12.000Z,51.60
2018-09-04T12:38:42.316Z,47.83
2018-09-04T12:41:15.608Z,41.07
2018-09-04T12:43:51.812Z,43.88
2018-09-04T12:46:20.508Z,45.40
2018-09-04T12:48:49.209Z,45.57
2018-09-04T12:51:17.783Z,40.57
2018-09-04T12:53:53.304Z,41.20
2018-09-04T12:56:22.303Z,46.03
2018-09-04T12:58:51.360Z,39.78
2018-09-04T13:01:19.984Z,40.40
2018-09-04T13:03:49.280Z,35.83
2018-09-04T13:06:17.456Z,34.40
2018-09-04T13:08:48.351Z,33.88
2018-09-04T13:11:16.776Z,33.60
2018-09-04T13:13:45.151Z,32.45
2018-09-04T13:16:13.766Z,33.37
2018-09-04T13:18:42.384Z,32.73
2018-09-04T13:21:12.644Z,31.60
2018-09-04T13:23:40.848Z,30.83
2018-09-04T13:26:10.137Z,34.00
2018-09-04T13:28:38.790Z,30.83
2018-09-04T13:31:07.608Z,35.13
2018-09-04T13:33:37.848Z,32.70
2018-09-04T13:36:08.333Z,29.30
2018-09-04T13:38:37.983Z,27.35
2018-09-04T13:41:07.733Z,27.62
2018-09-04T13:43:37.546Z,30.77
2018-09-04T13:46:05.831Z,32.17
2018-09-04T13:48:35.169Z,29.33
2018-09-04T13:51:03.383Z,26.95
2018-09-04T13:58:56.402Z,26.97
2018-09-04T14:01:24.770Z,31.10
2018-09-04T14:03:53.190Z,31.97
2018-09-04T14:06:21.738Z,29.50
2018-09-04T14:08:49.953Z,33.70
2018-09-04T14:11:18.207Z,32.67
2018-09-04T14:13:46.824Z,29.63
2018-09-04T14:16:18.431Z,29.33
2018-09-04T14:18:47.423Z,26.77
2018-09-04T14:21:15.669Z,31.90
2018-09-04T14:23:43.957Z,31.60
2018-09-04T14:26:13.147Z,32.60
2018-09-04T14:28:42.139Z,30.25
2018-09-04T14:31:10.360Z,31.30
2018-09-04T14:33:38.551Z,27.23
2018-09-04T14:36:07.102Z,30.82
2018-09-04T14:38:41.760Z,36.33
2018-09-04T14:41:09.974Z,31.00
2018-09-04T14:43:38.196Z,38.50
2018-09-04T14:46:06.425Z,29.57
2018-09-04T14:48:34.668Z,28.63
2018-09-04T14:51:02.889Z,31.85
2018-09-04T14:53:31.602Z,34.10
2018-09-04T14:55:59.848Z,29.87
2018-09-04T14:58:28.647Z,30.40
2018-09-04T15:00:56.950Z,29.18
2018-09-04T15:03:25.203Z,31.50
2018-09-04T15:05:54.320Z,28.60
2018-09-04T15:08:23.232Z,34.13
2018-09-04T15:10:52.060Z,33.55
2018-09-04T15:13:20.951Z,29.20
2018-09-04T15:15:49.296Z,28.80
2018-09-04T15:18:17.572Z,31.10
2018-09-04T15:20:45.823Z,36.80
2018-09-04T15:23:14.227Z,25.70
2018-09-04T15:25:42.487Z,31.02
2018-09-04T15:28:12.238Z,28.47
2018-09-04T15:30:41.261Z,29.57
2018-09-04T15:33:09.768Z,30.00
2018-09-04T15:35:38.020Z,25.65
2018-09-04T15:38:06.842Z,26.82
2018-09-04T15:40:35.372Z,24.40
2018-09-04T15:43:03.701Z,25.77
2018-09-04T15:45:31.991Z,32.73
2018-09-04T15:48:00.325Z,28.80
2018-09-04T15:50:28.588Z,27.57
2018-09-04T15:52:56.827Z,26.07
2018-09-04T15:55:25.080Z,27.73
2018-09-04T15:57:53.933Z,31.50
2018-09-04T16:00:22.193Z,28.60
2018-09-04T16:02:52.103Z,30.62
2018-09-04T16:05:21.526Z,33.02
2018-09-04T16:07:50.816Z,27.27
2018-09-04T16:10:19.150Z,32.47
2018-09-04T16:12:47.835Z,34.10
2018-09-04T16:15:16.115Z,26.70
2018-09-04T16:17:44.485Z,30.80
2018-09-04T16:20:12.893Z,30.87
2018-09-04T16:22:41.141Z,33.40
2018-09-04T16:25:09.487Z,29.53
2018-09-04T16:27:37.936Z,25.00
2018-09-04T16:30:07.004Z,27.70
2018-09-04T16:32:36.016Z,28.38
2018-09-04T16:35:04.400Z,27.00
2018-09-04T16:37:32.580Z,27.77
2018-09-04T16:40:00.788Z,27.77
2018-09-04T16:42:29.032Z,26.27
2018-09-04T16:44:57.216Z,27.02
2018-09-04T16:47:30.001Z,30.52
2018-09-04T16:49:58.198Z,27.30
2018-09-04T16:52:26.520Z,35.10
2018-09-04T16:54:55.666Z,31.12
2018-09-04T16:57:23.885Z,31.03
2018-09-04T16:59:52.088Z,29.60
2018-09-04T17:02:20.992Z,28.83
2018-09-04T17:04:52.383Z,29.70
2018-09-04T17:07:20.627Z,26.20
2018-09-04T17:09:48.812Z,27.03
2018-09-04T17:12:17.001Z,33.67
2018-09-04T17:14:45.580Z,31.52
2018-09-04T17:17:14.113Z,32.57
2018-09-04T17:19:46.743Z,34.93
2018-09-04T17:22:15.869Z,25.20
2018-09-04T17:24:44.058Z,31.80
2018-09-04T17:27:13.396Z,31.97
2018-09-04T17:29:41.568Z,33.00
2018-09-04T17:32:10.687Z,28.00
2018-09-04T17:34:38.846Z,27.37
2018-09-04T17:37:07.021Z,28.80
2018-09-04T17:39:35.883Z,27.13
2018-09-04T17:42:05.075Z,30.03
2018-09-04T17:44:33.705Z,26.90
2018-09-04T17:47:02.306Z,30.87
2018-09-04T17:49:30.736Z,30.65
2018-09-04T17:51:58.912Z,26.83
2018-09-04T17:54:27.166Z,30.10
2018-09-04T17:56:55.323Z,29.60
2018-09-04T17:59:23.560Z,26.37
2018-09-04T18:01:51.727Z,30.00
2018-09-04T18:04:23.525Z,33.90
2018-09-04T18:06:51.946Z,26.47
2018-09-04T18:09:20.657Z,31.73
2018-09-04T18:11:49.053Z,40.13
2018-09-04T18:14:17.268Z,33.30
2018-09-04T18:16:45.497Z,29.20
2018-09-04T18:19:13.768Z,41.45
2018-09-04T18:21:41.990Z,32.27
2018-09-04T18:24:10.228Z,29.03
2018-09-04T18:26:38.868Z,34.93
2018-09-04T18:29:07.249Z,29.23
2018-09-04T18:31:35.469Z,32.15
2018-09-04T18:34:03.747Z,33.37
2018-09-04T18:36:31.932Z,37.20
2018-09-04T18:39:00.071Z,30.90
2018-09-04T18:41:28.307Z,28.98
2018-09-04T18:43:56.760Z,33.83
2018-09-04T18:46:25.060Z,32.48
2018-09-04T18:48:55.185Z,32.93
2018-09-04T18:51:24.707Z,34.60
2018-09-04T18:53:53.070Z,31.82
2018-09-04T18:56:21.276Z,31.52
2018-09-04T18:58:49.485Z,33.98
2018-09-04T19:01:17.780Z,36.03
2018-09-04T19:03:45.966Z,35.33
2018-09-04T19:06:14.382Z,35.60
2018-09-04T19:08:42.596Z,34.63
2018-09-04T19:11:11.047Z,33.57
2018-09-04T19:13:39.248Z,35.40
2018-09-04T19:16:07.523Z,30.20
2018-09-04T19:18:35.740Z,41.43
2018-09-04T19:21:03.985Z,40.40
2018-09-04T19:23:32.245Z,33.93
2018-09-04T19:26:00.432Z,32.05
2018-09-04T19:28:30.643Z,31.73
2018-09-04T19:30:58.856Z,33.13
2018-09-04T19:33:27.439Z,29.30
2018-09-04T19:35:56.572Z,31.37
2018-09-04T19:38:24.783Z,34.10
2018-09-04T19:40:53.694Z,31.93
2018-09-04T19:43:21.900Z,36.20
2018-09-04T19:45:50.087Z,35.43
2018-09-04T19:48:18.304Z,38.02
2018-09-04T19:50:48.239Z,31.80
2018-09-04T19:53:17.336Z,35.53
2018-09-04T19:55:46.332Z,35.83
2018-09-04T19:58:16.085Z,36.47
2018-09-04T20:00:45.369Z,39.70
2018-09-04T20:03:14.613Z,34.97
2018-09-04T20:05:44.140Z,38.95
2018-09-04T20:08:13.144Z,36.40
2018-09-04T20:10:42.537Z,35.00
2018-09-04T20:13:11.918Z,34.97
2018-09-04T20:15:41.276Z,39.27
2018-09-04T20:18:10.255Z,39.18
2018-09-04T20:20:39.446Z,33.50
2018-09-04T20:23:07.729Z,34.23
2018-09-04T20:25:35.961Z,38.92
2018-09-04T20:28:04.404Z,38.02
2018-09-04T20:30:33.421Z,35.03
2018-09-04T20:33:01.640Z,33.98
2018-09-04T20:35:29.910Z,37.58
2018-09-04T20:37:58.381Z,35.58
2018-09-04T20:40:26.549Z,42.43
2018-09-04T20:42:54.743Z,35.73
2018-09-04T20:45:22.886Z,41.23
2018-09-04T20:47:51.353Z,55.03
2018-09-04T20:50:19.853Z,39.93
2018-09-04T20:52:48.700Z,44.26
2018-09-04T20:55:17.693Z,42.70
2018-09-04T20:57:57.422Z,37.40
2018-09-04T21:00:36.818Z,51.50
2018-09-04T21:03:16.671Z,41.63
2018-09-04T21:05:56.292Z,33.70
2018-09-04T21:08:33.896Z,36.08
2018-09-04T21:11:02.077Z,35.55
2018-09-04T21:13:30.280Z,45.87
2018-09-04T21:15:58.490Z,40.23
2018-09-04T21:18:26.692Z,36.47
2018-09-04T21:20:54.905Z,38.17
2018-09-04T21:23:23.069Z,38.83
2018-09-04T21:25:51.228Z,38.80
2018-09-04T21:28:19.425Z,42.30
2018-09-04T21:30:47.621Z,40.77
2018-09-04T21:33:15.838Z,42.77
2018-09-04T21:35:44.023Z,41.80
2018-09-04T21:38:12.214Z,33.50
2018-09-04T21:40:40.401Z,40.53
2018-09-04T21:43:08.603Z,35.73
2018-09-04T21:45:36.801Z,37.00
2018-09-04T21:48:05.015Z,36.07
2018-09-04T21:50:33.189Z,36.93
2018-09-04T21:53:01.373Z,38.17
2018-09-04T21:55:29.570Z,35.63
2018-09-04T21:57:57.715Z,37.23
2018-09-04T22:00:26.916Z,32.97
2018-09-04T22:02:56.207Z,34.77
2018-09-04T22:05:25.036Z,33.50
2018-09-04T22:07:55.092Z,37.03
2018-09-04T22:10:23.532Z,37.30
2018-09-04T22:12:51.706Z,37.78
2018-09-04T22:15:19.952Z,36.47
2018-09-04T22:17:48.132Z,42.58
2018-09-04T22:20:16.359Z,37.80
2018-09-04T22:22:44.544Z,38.33
2018-09-04T22:25:12.746Z,31.90
2018-09-04T22:27:40.928Z,39.45
2018-09-04T22:30:09.129Z,41.00
2018-09-04T22:32:37.304Z,33.50
2018-09-04T22:35:05.620Z,37.00
2018-09-04T22:37:33.853Z,35.27
2018-09-04T22:40:05.043Z,36.73
2018-09-04T22:42:33.451Z,39.73
2018-09-04T22:47:36.243Z,35.40
2018-09-04T22:50:09.764Z,41.53
2018-09-04T22:52:37.948Z,48.40
2018-09-04T22:55:07.893Z,42.07
2018-09-04T22:57:36.090Z,34.40
2018-09-04T23:00:05.288Z,37.17
2018-09-04T23:02:33.478Z,34.90
2018-09-04T23:05:01.873Z,38.35
2018-09-04T23:07:30.088Z,26.50
2018-09-04T23:09:58.425Z,34.17
2018-09-04T23:12:26.617Z,35.13
2018-09-04T23:14:54.796Z,30.00
2018-09-04T23:17:23.169Z,38.23
2018-09-04T23:19:51.548Z,40.05
2018-09-04T23:22:19.723Z,33.70
2018-09-04T23:24:47.891Z,31.45
2018-09-04T23:27:16.108Z,36.67
2018-09-04T23:29:44.260Z,33.63
2018-09-04T23:32:12.446Z,38.10
2018-09-04T23:34:40.970Z,38.73
2018-09-04T23:37:09.119Z,31.87
2018-09-04T23:39:41.389Z,39.40
2018-09-04T23:42:12.948Z,41.07
2018-09-04T23:44:41.123Z,40.77
2018-09-04T23:47:09.451Z,36.48
2018-09-04T23:49:37.626Z,37.03
2018-09-04T23:52:05.998Z,31.82
2018-09-04T23:54:38.520Z,29.44
2018-09-04T23:57:06.696Z,27.87
2018-09-04T23:59:34.952Z,33.20
